createdAt,value
2018-02-21T09:33:59.209Z,15.30
2018-02-21T09:39:13.799Z,14.60
2018-02-21T09:45:30.577Z,12.90
2018-02-21T09:50:41.789Z," 9.80"
2018-02-21T09:56:02.702Z,15.40
2018-02-21T10:05:26.787Z,16.10
2018-02-21T10:10:32.447Z,16.20
2018-02-21T10:15:45.243Z,16.90
2018-02-21T10:20:48.084Z,16.80
2018-02-21T10:25:49.772Z,15.30
2018-02-21T10:31:07.663Z,20.40
2018-02-21T10:36:17.055Z,21.80
2018-02-21T10:41:28.404Z,21.60
2018-02-21T10:46:38.720Z,20.00
2018-02-21T10:51:49.349Z,23.10
2018-02-21T10:57:01.332Z,20.70
2018-02-21T11:02:16.210Z,20.80
2018-02-21T11:07:20.102Z,22.30
2018-02-21T11:12:28.972Z,21.60
2018-02-21T11:17:39.655Z,23.90
2018-02-21T11:22:49.863Z,22.70
2018-02-21T11:27:58.970Z,20.60
2018-02-21T11:33:09.482Z,21.40
2018-02-21T11:38:20.816Z,22.30
2018-02-21T11:43:38.938Z,20.90
2018-02-21T11:48:45.971Z,21.70
2018-02-21T11:53:58.289Z,22.80
2018-02-21T11:59:06.959Z,21.10
2018-02-21T12:04:16.139Z,21.00
2018-02-21T12:09:20.327Z,22.20
2018-02-21T12:14:29.679Z,21.20
2018-02-21T12:19:40.372Z,20.00
2018-02-21T12:24:50.794Z,19.10
2018-02-21T12:29:57.848Z,18.60
2018-02-21T12:35:09.421Z,16.80
2018-02-21T12:40:28.392Z,17.00
2018-02-21T12:45:38.617Z,16.80
2018-02-21T12:50:59.123Z,15.90
2018-02-21T12:56:15.482Z,16.50
2018-02-21T13:01:19.575Z,15.00
2018-02-21T13:06:28.631Z,15.20
2018-02-21T13:11:44.785Z,13.90
2018-02-21T13:17:02.158Z,13.80
2018-02-21T13:22:08.706Z,14.30
2018-02-21T13:27:15.597Z,13.50
2018-02-21T13:32:24.006Z,13.30
2018-02-21T13:37:41.105Z,12.70
2018-02-21T13:42:58.526Z,12.40
2018-02-21T13:48:07.938Z,12.00
2018-02-21T13:53:16.859Z,11.60
2018-02-21T13:58:22.660Z,11.40
2018-02-21T14:03:41.065Z,11.40
2018-02-21T14:08:49.322Z,11.20
2018-02-21T14:14:02.582Z,10.70
2018-02-21T14:19:20.052Z,10.20
2018-02-21T14:24:28.790Z,10.20
2018-02-21T14:29:38.872Z," 9.90"
2018-02-21T14:34:48.071Z,10.20
2018-02-21T14:39:51.707Z," 9.80"
2018-02-21T14:44:59.715Z," 9.40"
2018-02-21T14:50:11.816Z," 9.50"
2018-02-21T14:55:22.318Z," 9.40"
2018-02-21T15:00:39.889Z," 9.20"
2018-02-21T15:05:43.266Z," 9.10"
2018-02-21T15:10:48.468Z," 9.00"
2018-02-21T15:16:05.903Z," 8.50"
2018-02-21T15:21:11.187Z," 8.10"
2018-02-21T15:26:28.719Z," 8.10"
2018-02-21T15:31:45.291Z," 8.60"
2018-02-21T15:37:02.643Z," 7.90"
2018-02-21T15:42:15.995Z," 7.70"
2018-02-21T15:47:32.794Z," 8.30"
2018-02-21T15:52:47.571Z," 7.80"
2018-02-21T15:57:50.024Z," 7.70"
2018-02-21T16:03:16.817Z," 7.60"
2018-02-21T16:08:32.679Z," 7.30"
2018-02-21T16:13:42.901Z," 7.50"
2018-02-21T16:18:53.421Z," 7.30"
2018-02-21T16:24:09.996Z," 7.10"
2018-02-21T16:29:16.166Z," 7.00"
2018-02-21T16:34:29.942Z," 6.60"
2018-02-21T16:40:32.890Z," 6.60"
2018-02-21T16:45:31.096Z," 6.40"
2018-02-21T16:50:44.269Z," 6.40"
2018-02-21T16:55:49.392Z," 6.20"
2018-02-21T17:01:00.756Z," 6.30"
2018-02-21T17:06:16.934Z," 6.90"
2018-02-21T17:11:32.501Z,10.60
2018-02-21T17:16:43.924Z," 4.10"
2018-02-21T17:22:12.245Z," 3.70"
2018-02-21T17:27:28.065Z," 3.60"
2018-02-21T17:32:44.286Z," 3.50"
2018-02-21T17:37:58.871Z," 3.40"
2018-02-21T17:43:05.076Z," 3.30"
2018-02-21T17:48:08.648Z," 3.20"
2018-02-21T17:53:18.159Z," 3.20"
2018-02-21T17:58:54.299Z," 3.10"
2018-02-21T18:04:02.690Z," 3.20"
2018-02-21T18:09:19.297Z," 2.90"
2018-02-21T18:14:30.624Z," 3.10"
2018-02-21T18:19:39.073Z," 2.80"
2018-02-21T18:24:43.589Z," 2.70"
2018-02-21T18:29:52.687Z," 2.80"
2018-02-21T18:35:02.274Z," 2.70"
2018-02-21T18:40:19.326Z," 2.60"
2018-02-21T18:45:21.960Z," 2.50"
2018-02-21T18:50:39.439Z," 2.60"
2018-02-21T18:55:45.994Z," 2.30"
2018-02-21T19:00:55.435Z," 2.30"
2018-02-21T19:06:02.909Z," 2.30"
2018-02-21T19:11:11.787Z," 2.10"
2018-02-21T19:16:20.476Z," 2.00"
2018-02-21T19:21:31.077Z," 1.90"
2018-02-21T19:26:40.515Z," 2.00"
2018-02-21T19:31:57.703Z," 1.70"
2018-02-21T19:37:09.133Z," 1.90"
2018-02-21T19:42:13.585Z," 1.90"
2018-02-21T19:47:17.004Z," 1.60"
2018-02-21T19:52:25.502Z," 1.70"
2018-02-21T19:57:30.530Z," 1.90"
2018-02-21T20:02:39.186Z," 1.60"
2018-02-21T20:07:49.101Z," 1.50"
2018-02-21T20:12:57.757Z," 1.50"
2018-02-21T20:18:06.350Z," 1.50"
2018-02-21T20:23:16.294Z," 1.30"
2018-02-21T20:28:20.755Z," 1.60"
2018-02-21T20:33:29.344Z," 1.50"
2018-02-21T20:38:38.692Z," 1.40"
2018-02-21T20:43:47.232Z," 1.50"
2018-02-21T20:48:58.102Z," 1.20"
2018-02-21T20:54:06.844Z," 1.40"
2018-02-21T20:59:15.957Z," 1.30"
2018-02-21T21:04:24.751Z," 1.10"
2018-02-21T21:09:34.119Z," 1.10"
2018-02-21T21:14:37.993Z," 0.80"
2018-02-21T21:19:46.003Z," 1.00"
2018-02-21T21:24:51.171Z," 0.90"
2018-02-21T21:30:00.322Z," 0.90"
2018-02-21T21:35:09.845Z," 0.80"
2018-02-21T21:40:17.639Z," 1.00"
2018-02-21T21:45:26.963Z," 1.00"
2018-02-21T21:50:36.804Z," 1.00"
2018-02-21T21:56:11.214Z," 0.80"
2018-02-21T22:01:20.664Z," 0.50"
2018-02-21T22:06:30.255Z," 0.60"
2018-02-21T22:11:39.497Z," 0.40"
2018-02-21T22:16:48.961Z," 0.50"
2018-02-21T22:21:57.927Z," 0.20"
2018-02-21T22:27:08.206Z," 0.40"
2018-02-21T22:32:16.443Z," 0.30"
2018-02-21T22:37:26.327Z," 0.10"
2018-02-21T22:42:36.665Z," 0.10"
2018-02-21T22:47:40.725Z," 0.10"
2018-02-21T22:52:50.695Z," 0.10"
2018-02-21T22:57:59.722Z," 0.00"
2018-02-21T23:03:09.046Z," 0.10"
2018-02-21T23:08:26.568Z," 0.00"
2018-02-21T23:13:37.389Z,-0.10
2018-02-21T23:18:46.603Z,-0.10
2018-02-21T23:23:56.291Z,-0.20
2018-02-21T23:29:05.096Z,-0.20
2018-02-21T23:34:13.559Z,-0.20
2018-02-21T23:39:21.983Z,-0.30
2018-02-21T23:44:31.737Z,-0.30
2018-02-21T23:49:36.531Z,-0.50
2018-02-21T23:54:40.157Z,-0.40
2018-02-21T23:59:44.277Z,-0.10
